Time;durP1;ratioP1;P1;durP2;ratioP2;P2;SDS_P1;SDS_P2;PMS_P1;PMS_P2;Temp;Humidity;BMP_temperature;BMP_pressure;BME280_temperature;BME280_humidity;BME280_pressure;Samples;Min_cycle;Max_cycle;Signal;HPM_P1;HPM_P2
2022/06/21 00:00:07;;;;;;;;;;;;;;;19.88;62.22;99217.09;5043013;28;19917;-91
2022/06/21 00:02:33;;;;;;;;;;;;;;;20.00;62.57;99219.91;5034610;28;19956;-92
2022/06/21 00:04:58;;;;;;;;;;;;;;;20.03;62.50;99226.84;5032940;28;19964;-91
2022/06/21 00:07:26;;;;;;;;;;;;;;;20.04;61.42;99229.44;5031317;28;19913;-92
2022/06/21 00:09:52;;;;;;;;;;;;;;;19.99;60.30;99222.66;5031231;28;19909;-93
2022/06/21 00:12:19;;;;;;;;;;;;;;;19.71;60.73;99218.97;5031280;28;19917;-93
2022/06/21 00:14:44;;;;;;;;;;;;;;;19.78;61.14;99217.66;5031087;28;19975;-91
2022/06/21 00:17:14;;;;;;;;;;;;;;;19.82;61.39;99215.66;5030791;28;19921;-90
2022/06/21 00:19:41;;;;;;;;;;;;;;;19.88;61.89;99211.75;5030690;28;20011;-91
2022/06/21 00:22:10;;;;;;;;;;;;;;;20.02;61.80;99198.38;5029486;28;19936;-92
2022/06/21 00:24:35;;;;;;;;;;;;;;;19.72;62.68;99199.25;5030769;28;20418;-91
2022/06/21 00:27:02;;;;;;;;;;;;;;;19.73;62.96;99200.13;5032269;28;19949;-91
2022/06/21 00:29:27;;;;;;;;;;;;;;;19.75;63.19;99199.06;5031618;28;19955;-91
2022/06/21 00:31:53;;;;;;;;;;;;;;;19.83;62.83;99194.16;5031199;28;19983;-91
2022/06/21 00:34:19;;;;;;;;;;;;;;;19.90;62.41;99196.47;5031642;28;20410;-91
2022/06/21 00:36:46;;;;;;;;;;;;;;;19.81;63.24;99192.53;5044497;28;19916;-91
2022/06/21 00:39:13;;;;;;;;;;;;;;;19.81;63.14;99200.56;5045167;28;19941;-91
2022/06/21 00:41:51;;;;;;;;;;;;;;;19.64;62.57;99198.88;5046986;28;19920;-91
2022/06/21 00:44:38;;;;;;;;;;;;;;;19.57;62.31;99201.06;5030790;28;19939;-91
2022/06/21 00:47:13;;;;;;;;;;;;;;;19.35;63.15;99209.47;5030934;28;19919;-92
2022/06/21 00:49:55;;;;;;;;;;;;;;;19.28;64.21;99206.31;5031115;28;19917;-92
2022/06/21 00:52:24;;;;;;;;;;;;;;;19.43;64.21;99209.03;5030683;28;20382;-92
2022/06/21 00:55:03;;;;;;;;;;;;;;;19.44;64.38;99197.38;5031563;28;20295;-92
2022/06/21 00:57:49;;;;;;;;;;;;;;;19.36;64.54;99197.84;5016413;28;20004;-92
2022/06/21 01:00:32;;;;;;;;;;;;;;;19.17;64.73;99197.19;5034758;28;19920;-92
2022/06/21 01:02:59;;;;;;;;;;;;;;;19.08;63.60;99188.78;5021455;28;19925;-91
2022/06/21 01:05:27;;;;;;;;;;;;;;;18.92;63.94;99191.47;5034470;28;19912;-92
2022/06/21 01:07:53;;;;;;;;;;;;;;;18.70;64.90;99181.09;5034133;28;19970;-91
2022/06/21 01:10:18;;;;;;;;;;;;;;;18.92;64.14;99178.13;5035070;28;19921;-91
2022/06/21 01:12:51;;;;;;;;;;;;;;;18.95;63.56;99177.06;5033492;28;19986;-91
2022/06/21 01:15:19;;;;;;;;;;;;;;;19.12;63.81;99173.41;5033119;28;19916;-91
2022/06/21 01:17:48;;;;;;;;;;;;;;;18.95;64.24;99183.28;5014795;28;19936;-91
2022/06/21 01:20:17;;;;;;;;;;;;;;;19.05;63.80;99178.25;5017882;28;19956;-89
2022/06/21 01:22:50;;;;;;;;;;;;;;;18.83;63.87;99167.03;5033224;28;19917;-91
2022/06/21 01:25:25;;;;;;;;;;;;;;;18.62;64.77;99161.97;5033995;28;19948;-91
2022/06/21 01:27:54;;;;;;;;;;;;;;;18.52;65.11;99158.09;5033668;28;19975;-91
2022/06/21 01:30:20;;;;;;;;;;;;;;;18.67;65.36;99167.06;5034167;28;19920;-91
2022/06/21 01:32:45;;;;;;;;;;;;;;;18.82;65.28;99170.69;5032628;28;19948;-91
2022/06/21 01:35:13;;;;;;;;;;;;;;;18.78;65.22;99173.53;5033313;28;19948;-91
2022/06/21 01:37:40;;;;;;;;;;;;;;;18.70;65.88;99178.44;5032941;28;19948;-90
2022/06/21 01:40:09;;;;;;;;;;;;;;;18.64;66.66;99175.25;5033606;28;20425;-90
2022/06/21 01:42:42;;;;;;;;;;;;;;;18.72;66.47;99173.00;5033032;28;19923;-90
2022/06/21 01:45:09;;;;;;;;;;;;;;;18.68;66.88;99172.31;5033687;28;19964;-90
2022/06/21 01:47:41;;;;;;;;;;;;;;;18.59;67.52;99163.00;5013681;28;20295;-91
2022/06/21 01:50:08;;;;;;;;;;;;;;;18.54;68.09;99164.25;5033824;28;20432;-92
2022/06/21 01:52:35;;;;;;;;;;;;;;;18.58;68.26;99165.78;5032856;28;20380;-91
2022/06/21 01:55:05;;;;;;;;;;;;;;;18.46;68.76;99164.66;5033233;28;19917;-92
2022/06/21 01:57:31;;;;;;;;;;;;;;;18.49;68.68;99159.16;5033429;28;20007;-92
2022/06/21 01:59:58;;;;;;;;;;;;;;;18.42;69.45;99152.44;5032523;28;20020;-91
2022/06/21 02:02:26;;;;;;;;;;;;;;;18.40;69.23;99157.00;5033553;28;19913;-91
2022/06/21 02:04:54;;;;;;;;;;;;;;;18.45;69.52;99162.09;5032700;28;20311;-92
2022/06/21 02:07:21;;;;;;;;;;;;;;;18.39;69.90;99153.44;5031431;28;19917;-91
2022/06/21 02:09:50;;;;;;;;;;;;;;;18.56;69.49;99162.34;5033896;28;20455;-92
2022/06/21 02:12:16;;;;;;;;;;;;;;;18.44;69.30;99161.19;5033358;28;19913;-91
2022/06/21 02:14:51;;;;;;;;;;;;;;;18.46;68.92;99171.78;5031857;28;20414;-91
2022/06/21 02:17:22;;;;;;;;;;;;;;;18.36;69.07;99177.66;5032971;28;19912;-90
2022/06/21 02:19:48;;;;;;;;;;;;;;;18.36;69.30;99177.66;5032105;28;19983;-91
2022/06/21 02:22:24;;;;;;;;;;;;;;;18.28;68.91;99182.56;5032108;28;20391;-90
2022/06/21 02:24:50;;;;;;;;;;;;;;;18.04;69.02;99187.41;5032587;28;19909;-90
2022/06/21 02:27:16;;;;;;;;;;;;;;;18.06;68.86;99186.41;5031389;28;21267;-91
2022/06/21 02:29:49;;;;;;;;;;;;;;;17.77;70.32;99190.59;5033222;28;19986;-91
2022/06/21 02:32:19;;;;;;;;;;;;;;;17.74;71.38;99192.56;5031133;28;19913;-90
2022/06/21 02:34:46;;;;;;;;;;;;;;;17.87;71.08;99191.84;5032721;28;19917;-90
2022/06/21 02:37:13;;;;;;;;;;;;;;;17.77;71.58;99190.59;5031836;28;19913;-92
2022/06/21 02:39:38;;;;;;;;;;;;;;;17.76;71.82;99194.19;5032353;28;19924;-91
2022/06/21 02:42:25;;;;;;;;;;;;;;;17.74;72.08;99203.22;5031815;28;19917;-90
2022/06/21 02:45:18;;;;;;;;;;;;;;;17.87;71.67;99201.63;5031499;28;19925;-90
2022/06/21 02:47:45;;;;;;;;;;;;;;;17.93;71.30;99200.47;5008894;28;19940;-92
2022/06/21 02:50:19;;;;;;;;;;;;;;;17.87;71.76;99201.63;5025684;28;19920;-90
2022/06/21 02:52:45;;;;;;;;;;;;;;;17.60;72.82;99193.28;5024785;28;20306;-91
2022/06/21 02:55:29;;;;;;;;;;;;;;;17.52;72.73;99197.19;5026858;28;19913;-88
2022/06/21 02:58:08;;;;;;;;;;;;;;;17.70;71.85;99198.06;5032678;28;20371;-88
2022/06/21 03:00:33;;;;;;;;;;;;;;;17.42;72.53;99187.94;5027795;28;19921;-88
2022/06/21 03:03:01;;;;;;;;;;;;;;;17.43;72.64;99187.00;5029187;28;20003;-89
2022/06/21 03:05:27;;;;;;;;;;;;;;;17.37;73.03;99182.00;5030844;28;20028;-86
2022/06/21 03:07:54;;;;;;;;;;;;;;;17.60;72.04;99175.47;5013306;28;19913;-86
2022/06/21 03:10:22;;;;;;;;;;;;;;;17.55;72.47;99182.84;5032203;28;19952;-83
2022/06/21 03:12:49;;;;;;;;;;;;;;;17.58;72.90;99179.16;5031144;28;19967;-84
2022/06/21 03:15:15;;;;;;;;;;;;;;;17.71;72.39;99174.91;5031896;28;19913;-85
2022/06/21 03:17:53;;;;;;;;;;;;;;;17.78;72.17;99168.31;5032539;28;19979;-83
2022/06/21 03:20:19;;;;;;;;;;;;;;;17.73;72.85;99175.66;5031360;28;19963;-84
2022/06/21 03:22:45;;;;;;;;;;;;;;;17.89;72.51;99173.09;5032250;28;19963;-86
2022/06/21 03:25:30;;;;;;;;;;;;;;;17.93;72.72;99166.63;5031651;28;19913;-83
2022/06/21 03:27:58;;;;;;;;;;;;;;;18.15;71.55;99158.34;5018519;28;19920;-82
2022/06/21 03:30:25;;;;;;;;;;;;;;;18.13;71.46;99159.38;5032416;28;19909;-83
2022/06/21 03:32:52;;;;;;;;;;;;;;;18.12;71.00;99162.97;5032421;28;19920;-83
2022/06/21 03:35:18;;;;;;;;;;;;;;;18.23;70.82;99158.78;5032147;28;20011;-84
2022/06/21 03:37:43;;;;;;;;;;;;;;;18.30;70.77;99163.78;5031993;28;20020;-85
2022/06/21 03:43:01;;;;;;;;;;;;;;;18.74;69.40;99149.75;5031767;28;19924;-84
2022/06/21 03:45:29;;;;;;;;;;;;;;;18.61;68.42;99153.13;5032111;28;19920;-82
2022/06/21 03:47:57;;;;;;;;;;;;;;;18.80;68.38;99146.72;5032188;28;20367;-83
2022/06/21 03:50:26;;;;;;;;;;;;;;;18.92;67.18;99150.50;5032086;28;20161;-84
2022/06/21 03:53:00;;;;;;;;;;;;;;;18.98;65.92;99143.97;5031418;28;20402;-86
2022/06/21 03:55:31;;;;;;;;;;;;;;;19.30;65.09;99134.03;5031337;28;20007;-87
2022/06/21 03:58:00;;;;;;;;;;;;;;;19.40;65.83;99134.34;5031239;28;19917;-86
2022/06/21 04:00:29;;;;;;;;;;;;;;;19.49;67.05;99131.09;5030819;28;19976;-93
2022/06/21 04:03:18;;;;;;;;;;;;;;;19.54;67.68;99128.16;5030939;28;19917;-89
2022/06/21 04:06:03;;;;;;;;;;;;;;;19.56;68.39;99120.91;5022783;28;19920;-90
2022/06/21 04:08:35;;;;;;;;;;;;;;;19.64;68.29;99124.81;5030379;28;20008;-90
2022/06/21 04:11:01;;;;;;;;;;;;;;;19.89;68.38;99136.72;5030610;28;19970;-88
2022/06/21 04:13:34;;;;;;;;;;;;;;;20.02;68.01;99134.16;5029740;28;19929;-84
2022/06/21 04:16:04;;;;;;;;;;;;;;;20.22;67.57;99127.53;5030630;28;19917;-89
2022/06/21 04:18:33;;;;;;;;;;;;;;;20.54;66.96;99133.47;5012762;28;19971;-89
2022/06/21 04:21:08;;;;;;;;;;;;;;;20.82;66.49;99134.38;5026448;28;20395;-88
2022/06/21 04:23:36;;;;;;;;;;;;;;;20.90;63.03;99131.19;5023464;28;20509;-89
2022/06/21 04:26:06;;;;;;;;;;;;;;;21.08;60.89;99127.25;5030085;28;20375;-88
2022/06/21 04:28:39;;;;;;;;;;;;;;;21.19;59.12;99136.41;5029981;28;20019;-88
2022/06/21 04:31:14;;;;;;;;;;;;;;;21.05;57.02;99134.66;5031332;28;19924;-89
2022/06/21 04:33:49;;;;;;;;;;;;;;;20.55;56.18;99129.81;5033635;28;20326;-92
2022/06/21 04:36:21;;;;;;;;;;;;;;;20.41;57.51;99129.88;5029020;28;19928;-90
2022/06/21 04:38:52;;;;;;;;;;;;;;;20.57;56.84;99135.06;5033601;28;20426;-93
2022/06/21 04:41:23;;;;;;;;;;;;;;;20.63;57.48;99132.00;5030092;28;19917;-91
2022/06/21 04:43:58;;;;;;;;;;;;;;;21.04;56.95;99128.44;5023406;28;19921;-89
2022/06/21 04:46:33;;;;;;;;;;;;;;;21.10;56.82;99130.69;5034258;28;19913;-89
2022/06/21 04:49:04;;;;;;;;;;;;;;;21.70;56.64;99124.88;5034250;28;19928;-89
2022/06/21 04:51:33;;;;;;;;;;;;;;;22.08;56.02;99121.31;5034703;28;19920;-88
2022/06/21 04:54:00;;;;;;;;;;;;;;;21.89;55.74;99125.31;5034938;28;19920;-90
2022/06/21 04:56:29;;;;;;;;;;;;;;;21.78;55.67;99118.03;5034099;28;19963;-91
2022/06/21 04:58:55;;;;;;;;;;;;;;;21.71;55.63;99113.19;5034642;28;19920;-89
2022/06/21 05:01:30;;;;;;;;;;;;;;;21.87;53.33;99113.81;5034660;28;20338;-91
2022/06/21 05:04:01;;;;;;;;;;;;;;;21.94;55.68;99108.88;5034772;28;19916;-89
2022/06/21 05:06:26;;;;;;;;;;;;;;;22.06;54.04;99116.06;5033955;28;19917;-90
2022/06/21 05:08:53;;;;;;;;;;;;;;;22.22;54.53;99123.00;5034643;28;20267;-89
2022/06/21 05:11:20;;;;;;;;;;;;;;;22.58;53.73;99126.69;5036939;28;19927;-88
2022/06/21 05:13:50;;;;;;;;;;;;;;;22.86;52.74;99122.78;5035826;28;20014;-90
2022/06/21 05:16:22;;;;;;;;;;;;;;;22.97;52.21;99124.69;5032520;28;20008;-90
2022/06/21 05:18:53;;;;;;;;;;;;;;;23.12;52.76;99122.69;5034238;28;20023;-89
2022/06/21 05:21:22;;;;;;;;;;;;;;;23.06;52.96;99123.97;5033837;28;19917;-88
2022/06/21 05:23:47;;;;;;;;;;;;;;;22.97;53.73;99120.19;5034255;28;19919;-89
2022/06/21 05:26:18;;;;;;;;;;;;;;;23.17;52.23;99120.50;5034385;28;19913;-89
2022/06/21 05:28:52;;;;;;;;;;;;;;;23.10;52.70;99114.75;5033787;28;20395;-89
2022/06/21 05:31:20;;;;;;;;;;;;;;;23.26;52.42;99118.94;5034263;28;19920;-89
2022/06/21 05:33:54;;;;;;;;;;;;;;;23.33;52.45;99126.44;5034207;28;19920;-89
2022/06/21 05:36:27;;;;;;;;;;;;;;;23.73;51.29;99126.03;5034016;28;19913;-89
2022/06/21 05:38:58;;;;;;;;;;;;;;;24.05;51.20;99119.97;5015682;28;20418;-88
2022/06/21 05:41:34;;;;;;;;;;;;;;;24.17;51.55;99120.78;5033222;28;19953;-88
2022/06/21 05:44:02;;;;;;;;;;;;;;;24.55;49.93;99124.06;5033686;28;19913;-88
2022/06/21 05:46:29;;;;;;;;;;;;;;;24.96;48.71;99127.88;5033408;28;19917;-87
2022/06/21 05:48:55;;;;;;;;;;;;;;;24.67;47.37;99123.09;5034051;28;19919;-88
2022/06/21 05:51:24;;;;;;;;;;;;;;;24.22;48.17;99126.69;5035320;28;20373;-89
2022/06/21 05:53:55;;;;;;;;;;;;;;;24.12;48.88;99131.94;5038125;28;19924;-91
2022/06/21 05:56:23;;;;;;;;;;;;;;;23.88;47.99;99121.31;5014443;28;19989;-90
2022/06/21 05:58:52;;;;;;;;;;;;;;;24.51;48.82;99115.34;5012975;28;20414;-90
2022/06/21 06:01:37;;;;;;;;;;;;;;;25.17;48.30;99114.41;5013797;28;20307;-90
2022/06/21 06:04:13;;;;;;;;;;;;;;;25.82;46.44;99114.28;5013436;28;19979;-90
2022/06/21 06:06:41;;;;;;;;;;;;;;;25.81;44.55;99115.25;5024787;28;19925;-90
2022/06/21 06:09:10;;;;;;;;;;;;;;;26.15;44.19;99107.78;5033257;28;19940;-91
2022/06/21 06:11:59;;;;;;;;;;;;;;;25.57;46.75;99102.09;5033496;28;19917;-90
2022/06/21 06:14:30;;;;;;;;;;;;;;;26.26;46.08;99102.25;5032980;28;19955;-90
2022/06/21 06:16:57;;;;;;;;;;;;;;;26.45;44.81;99095.19;5033304;28;19913;-90
2022/06/21 06:19:28;;;;;;;;;;;;;;;27.14;43.54;99091.56;5033192;28;19913;-91
2022/06/21 06:22:05;;;;;;;;;;;;;;;27.02;43.11;99095.41;5032871;28;19920;-90
2022/06/21 06:24:34;;;;;;;;;;;;;;;27.39;45.05;99093.81;5032422;28;20035;-90
2022/06/21 06:27:00;;;;;;;;;;;;;;;27.86;40.45;99088.41;5031596;28;19975;-88
2022/06/21 06:29:31;;;;;;;;;;;;;;;27.54;42.38;99089.66;5032952;28;19913;-91
2022/06/21 06:31:59;;;;;;;;;;;;;;;28.04;40.42;99085.81;5032853;28;19913;-91
2022/06/21 06:34:27;;;;;;;;;;;;;;;28.24;42.93;99083.88;5033080;28;19919;-94
2022/06/21 06:37:00;;;;;;;;;;;;;;;28.03;42.48;99086.81;5032878;28;19913;-91
2022/06/21 06:39:25;;;;;;;;;;;;;;;27.96;42.04;99086.56;5032594;28;19917;-90
2022/06/21 06:42:02;;;;;;;;;;;;;;;28.05;41.65;99084.78;5032793;28;19920;-90
2022/06/21 06:44:28;;;;;;;;;;;;;;;28.24;40.33;99089.28;5032721;28;19917;-92
2022/06/21 06:46:55;;;;;;;;;;;;;;;28.53;41.43;99089.09;5032821;28;19920;-91
2022/06/21 06:49:30;;;;;;;;;;;;;;;28.64;38.96;99077.22;5032744;28;19913;-93
2022/06/21 06:51:59;;;;;;;;;;;;;;;28.16;41.76;99079.19;5032310;28;19913;-91
2022/06/21 06:54:36;;;;;;;;;;;;;;;28.75;40.18;99082.41;5031926;28;19924;-93
2022/06/21 06:57:04;;;;;;;;;;;;;;;28.71;41.14;99072.00;5032063;28;19913;-91
2022/06/21 06:59:29;;;;;;;;;;;;;;;28.64;39.76;99082.66;5032174;28;20426;-89
2022/06/21 07:02:02;;;;;;;;;;;;;;;28.86;39.84;99078.59;5031365;28;19924;-91
2022/06/21 07:04:34;;;;;;;;;;;;;;;29.06;40.41;99075.72;5032087;28;20418;-91
2022/06/21 07:07:02;;;;;;;;;;;;;;;29.40;41.41;99069.56;5031733;28;19913;-91
2022/06/21 07:09:30;;;;;;;;;;;;;;;30.22;39.05;99074.63;5032315;28;20007;-89
2022/06/21 07:12:00;;;;;;;;;;;;;;;30.40;39.25;99075.38;5014003;28;19913;-93
2022/06/21 07:14:26;;;;;;;;;;;;;;;30.19;38.91;99064.91;5031461;28;19924;-90
2022/06/21 07:17:03;;;;;;;;;;;;;;;30.33;36.45;99075.16;5032205;28;19913;-92
2022/06/21 07:19:29;;;;;;;;;;;;;;;31.24;37.60;99068.00;5031207;28;19917;-93
2022/06/21 07:21:54;;;;;;;;;;;;;;;30.86;37.24;99074.94;5032241;28;19913;-92
2022/06/21 07:24:20;;;;;;;;;;;;;;;31.21;37.06;99065.63;5013532;28;19960;-95
2022/06/21 07:27:03;;;;;;;;;;;;;;;30.91;38.60;99069.00;5030259;28;19913;-92
2022/06/21 07:29:31;;;;;;;;;;;;;;;31.13;34.43;99062.91;5030459;28;19924;-91
2022/06/21 07:31:59;;;;;;;;;;;;;;;31.32;34.87;99063.56;5032358;28;19959;-94
2022/06/21 07:34:25;;;;;;;;;;;;;;;30.95;32.85;99054.03;5032222;28;19920;-92
2022/06/21 07:37:02;;;;;;;;;;;;;;;30.97;32.97;99057.44;5031718;28;20298;-93
2022/06/21 07:39:38;;;;;;;;;;;;;;;31.36;32.94;99048.59;5010605;28;19955;-92
2022/06/21 07:42:08;;;;;;;;;;;;;;;31.66;32.63;99047.00;5026698;28;19964;-90
2022/06/21 07:44:54;;;;;;;;;;;;;;;31.65;31.24;99052.63;5012033;28;19913;-93
2022/06/21 07:47:23;;;;;;;;;;;;;;;31.78;32.90;99044.78;5005069;28;20312;-94
2022/06/21 07:49:55;;;;;;;;;;;;;;;31.81;33.65;99046.28;5011835;28;19917;-92
2022/06/21 07:52:26;;;;;;;;;;;;;;;32.41;33.21;99036.66;5011162;28;19996;-91
2022/06/21 07:54:57;;;;;;;;;;;;;;;32.40;31.09;99037.69;5010930;28;19924;-95
2022/06/21 07:57:27;;;;;;;;;;;;;;;32.33;31.12;99029.34;5011556;28;19925;-94
2022/06/21 07:59:57;;;;;;;;;;;;;;;32.06;31.37;99038.88;5011484;28;19952;-91
2022/06/21 08:07:56;;;;;;;;;;;;;;;32.84;30.11;99050.72;5012136;28;19920;-90
2022/06/21 08:10:21;;;;;;;;;;;;;;;32.83;32.15;99051.75;5011532;28;19909;-91
2022/06/21 08:12:48;;;;;;;;;;;;;;;32.84;29.86;99047.97;5011637;28;19921;-90
2022/06/21 08:15:13;;;;;;;;;;;;;;;32.92;32.64;99042.47;5010630;28;19913;-92
2022/06/21 08:17:42;;;;;;;;;;;;;;;32.42;31.29;99047.38;5011801;28;20311;-91
2022/06/21 08:20:08;;;;;;;;;;;;;;;32.82;33.92;99050.06;5011273;28;19920;-92
2022/06/21 08:22:39;;;;;;;;;;;;;;;32.80;33.64;99050.22;5011194;28;19913;-92
2022/06/21 08:25:23;;;;;;;;;;;;;;;32.63;29.23;99048.63;5011660;28;19979;-92
2022/06/21 08:27:51;;;;;;;;;;;;;;;32.62;31.66;99044.19;5011310;28;19952;-91
2022/06/21 08:30:23;;;;;;;;;;;;;;;32.94;28.97;99050.47;5011580;28;20371;-91
2022/06/21 08:33:03;;;;;;;;;;;;;;;32.93;31.36;99055.06;5011705;28;19918;-91
2022/06/21 08:35:33;;;;;;;;;;;;;;;33.07;31.49;99058.88;5011484;28;19913;-91
2022/06/21 08:38:01;;;;;;;;;;;;;;;33.48;29.99;99049.50;5011631;28;20055;-93
2022/06/21 08:40:30;;;;;;;;;;;;;;;33.45;29.88;99058.06;5022679;28;19917;-91
2022/06/21 08:43:09;;;;;;;;;;;;;;;32.83;30.96;99054.50;5031404;28;20472;-91
2022/06/21 08:45:53;;;;;;;;;;;;;;;33.13;31.87;99055.41;5031304;28;19913;-92
2022/06/21 08:48:25;;;;;;;;;;;;;;;33.80;31.04;99062.00;5013400;28;19917;-91
2022/06/21 08:51:10;;;;;;;;;;;;;;;33.38;31.14;99055.22;5013130;28;20296;-91
2022/06/21 08:54:11;;;;;;;;;;;;;;;33.27;29.69;99063.88;5012398;28;19916;-92
2022/06/21 08:56:46;;;;;;;;;;;;;;;33.06;31.21;99059.94;4969806;28;19918;-91
2022/06/21 08:59:11;;;;;;;;;;;;;;;33.05;30.05;99055.50;5004945;28;19917;-91
2022/06/21 09:02:06;;;;;;;;;;;;;;;33.33;31.38;99054.94;5011323;28;19967;-94
2022/06/21 09:04:31;;;;;;;;;;;;;;;33.42;30.93;99051.09;4974943;28;20472;-90
2022/06/21 09:07:15;;;;;;;;;;;;;;;33.41;30.89;99056.75;5010946;28;19913;-90
2022/06/21 09:09:41;;;;;;;;;;;;;;;32.90;29.81;99052.72;5011156;28;19987;-91
2022/06/21 09:12:06;;;;;;;;;;;;;;;33.17;31.38;99054.03;5011083;28;19913;-92
2022/06/21 09:14:40;;;;;;;;;;;;;;;33.53;31.22;99053.34;5019256;28;20007;-91
2022/06/21 09:17:05;;;;;;;;;;;;;;;33.64;29.69;99038.38;5032340;28;20015;-91
2022/06/21 09:19:43;;;;;;;;;;;;;;;33.34;29.81;99042.97;5033803;28;20012;-90
2022/06/21 09:22:20;;;;;;;;;;;;;;;33.64;31.35;99035.63;5033477;28;20399;-90
2022/06/21 09:24:58;;;;;;;;;;;;;;;33.57;32.06;99045.66;5034559;28;20379;-90
2022/06/21 09:27:56;;;;;;;;;;;;;;;33.90;30.58;99042.56;5032611;28;20035;-90
2022/06/21 09:30:36;;;;;;;;;;;;;;;34.07;30.34;99033.09;5011273;28;19944;-90
2022/06/21 09:33:17;;;;;;;;;;;;;;;33.45;28.95;99041.69;5033713;28;20387;-90
2022/06/21 09:35:45;;;;;;;;;;;;;;;33.67;31.62;99038.00;5033626;28;20414;-92
2022/06/21 09:38:18;;;;;;;;;;;;;;;33.68;29.11;99026.03;5015959;28;20310;-92
2022/06/21 09:41:06;;;;;;;;;;;;;;;33.49;28.14;99015.66;5034008;28;19916;-89
2022/06/21 09:43:46;;;;;;;;;;;;;;;33.31;29.50;99018.75;5027768;28;20426;-92
2022/06/21 09:46:21;;;;;;;;;;;;;;;33.51;29.92;99017.16;5033705;28;19920;-92
2022/06/21 09:48:46;;;;;;;;;;;;;;;34.17;30.25;99001.84;5033601;28;19920;-91
2022/06/21 09:51:17;;;;;;;;;;;;;;;34.61;30.55;99003.63;5033047;28;19913;-93
2022/06/21 09:53:55;;;;;;;;;;;;;;;34.51;29.24;99003.97;5034010;28;19978;-94
2022/06/21 09:56:42;;;;;;;;;;;;;;;34.20;28.42;98996.84;5033368;28;20318;-91
2022/06/21 09:59:15;;;;;;;;;;;;;;;34.51;31.20;99000.34;5033505;28;19971;-90
2022/06/21 10:01:40;;;;;;;;;;;;;;;33.97;28.45;98991.53;5033135;28;20402;-90
2022/06/21 10:04:08;;;;;;;;;;;;;;;33.69;28.90;98984.00;5033565;28;19909;-90
2022/06/21 10:06:43;;;;;;;;;;;;;;;33.82;31.52;98986.06;5033324;28;19913;-89
2022/06/21 10:09:11;;;;;;;;;;;;;;;33.98;29.40;98973.22;5033546;28;19917;-91
2022/06/21 10:11:42;;;;;;;;;;;;;;;33.86;28.29;98979.19;5033595;28;19909;-90
2022/06/21 10:14:17;;;;;;;;;;;;;;;33.91;28.75;98967.69;5033147;28;20003;-89
2022/06/21 10:16:58;;;;;;;;;;;;;;;33.89;29.99;98970.59;5033360;28;19909;-91
2022/06/21 10:19:23;;;;;;;;;;;;;;;34.21;32.89;98970.31;5033614;28;20030;-87
2022/06/21 10:21:49;;;;;;;;;;;;;;;34.51;31.79;98973.84;5033051;28;20395;-91
2022/06/21 10:24:32;;;;;;;;;;;;;;;34.43;31.51;98963.00;5033648;28;19913;-89
2022/06/21 10:27:01;;;;;;;;;;;;;;;34.68;28.42;98958.00;5033004;28;19917;-89
2022/06/21 10:29:42;;;;;;;;;;;;;;;34.19;29.35;98950.53;5032243;28;19920;-89
2022/06/21 10:32:26;;;;;;;;;;;;;;;34.12;30.76;98952.34;5035362;28;19963;-87
2022/06/21 10:35:12;;;;;;;;;;;;;;;34.23;31.32;98946.34;5039610;28;19989;-88
2022/06/21 10:37:56;;;;;;;;;;;;;;;34.70;29.42;98942.19;5029815;28;19917;-90
2022/06/21 10:40:34;;;;;;;;;;;;;;;34.58;27.72;98939.13;5032438;28;20315;-90
2022/06/21 10:43:05;;;;;;;;;;;;;;;34.53;27.10;98935.31;5031485;28;20295;-89
2022/06/21 10:45:33;;;;;;;;;;;;;;;34.76;27.51;98940.59;5032411;28;19955;-90
2022/06/21 10:48:01;;;;;;;;;;;;;;;34.69;27.24;98936.94;5032780;28;19917;-90
2022/06/21 10:50:40;;;;;;;;;;;;;;;34.59;28.49;98929.91;5033002;28;19994;-89
2022/06/21 10:53:26;;;;;;;;;;;;;;;34.58;27.05;98930.09;5032733;28;19920;-90
2022/06/21 10:58:55;;;;;;;;;;;;;;;35.15;27.26;98931.81;5032148;28;19924;-89
2022/06/21 11:01:31;;;;;;;;;;;;;;;34.73;24.63;98941.81;5031755;28;19927;-88
2022/06/21 11:03:59;;;;;;;;;;;;;;;34.66;26.17;98946.38;5032386;28;19915;-88
2022/06/21 11:06:34;;;;;;;;;;;;;;;35.17;26.01;98937.09;5031748;28;19956;-89
2022/06/21 11:09:24;;;;;;;;;;;;;;;34.93;25.40;98933.78;5032230;28;19913;-88
2022/06/21 11:11:52;;;;;;;;;;;;;;;34.76;26.33;98933.22;5031844;28;19913;-87
2022/06/21 11:14:36;;;;;;;;;;;;;;;34.90;27.53;98933.34;5032948;28;19917;-87
2022/06/21 11:17:20;;;;;;;;;;;;;;;35.31;30.49;98935.31;5034772;28;20501;-88
2022/06/21 11:19:45;;;;;;;;;;;;;;;34.84;27.07;98943.19;5032551;28;19913;-88
2022/06/21 11:22:11;;;;;;;;;;;;;;;34.66;28.42;98937.31;5031301;28;20375;-87
2022/06/21 11:25:01;;;;;;;;;;;;;;;35.00;28.98;98932.97;5032076;28;19916;-90
2022/06/21 11:27:27;;;;;;;;;;;;;;;35.13;28.91;98947.63;5031809;28;19920;-89
2022/06/21 11:29:52;;;;;;;;;;;;;;;34.90;28.18;98927.88;5032143;28;19909;-87
2022/06/21 11:32:24;;;;;;;;;;;;;;;34.21;28.29;98942.97;5030961;28;19921;-86
2022/06/21 11:34:55;;;;;;;;;;;;;;;34.11;29.65;98936.94;5031907;28;19913;-87
2022/06/21 11:37:39;;;;;;;;;;;;;;;34.44;29.30;98932.69;5031106;28;20406;-88
2022/06/21 11:40:05;;;;;;;;;;;;;;;34.51;28.66;98937.38;5031377;28;19924;-87
2022/06/21 11:42:53;;;;;;;;;;;;;;;34.41;29.14;98938.56;5031001;28;20315;-88
2022/06/21 11:45:25;;;;;;;;;;;;;;;34.61;29.09;98922.31;5026094;28;20007;-88
2022/06/21 11:48:09;;;;;;;;;;;;;;;34.74;29.88;98928.94;5030988;28;20396;-89
2022/06/21 11:50:44;;;;;;;;;;;;;;;34.92;30.28;98932.06;5031416;28;19920;-87
2022/06/21 11:53:13;;;;;;;;;;;;;;;34.63;29.67;98922.13;5030874;28;19921;-90
2022/06/21 11:56:00;;;;;;;;;;;;;;;34.76;27.77;98916.78;5032069;28;19939;-88
2022/06/21 11:58:25;;;;;;;;;;;;;;;35.13;31.46;98902.94;5031159;28;19920;-90
2022/06/21 12:00:55;;;;;;;;;;;;;;;35.36;29.38;98890.84;5031900;28;19913;-88
2022/06/21 12:03:39;;;;;;;;;;;;;;;35.21;31.36;98901.94;5029824;28;20094;-89
2022/06/21 12:06:13;;;;;;;;;;;;;;;34.98;28.32;98903.06;5013564;28;20016;-90
2022/06/21 12:08:41;;;;;;;;;;;;;;;34.93;28.71;98895.44;5031582;28;19924;-88
2022/06/21 12:11:27;;;;;;;;;;;;;;;34.89;30.96;98891.38;5031476;28;19913;-89
2022/06/21 12:13:52;;;;;;;;;;;;;;;35.03;30.98;98906.03;4992464;28;19917;-89
2022/06/21 12:16:20;;;;;;;;;;;;;;;35.07;30.17;98887.31;5031657;28;19917;-90
2022/06/21 12:18:51;;;;;;;;;;;;;;;34.91;28.54;98900.28;5012898;28;20294;-91
2022/06/21 12:21:19;;;;;;;;;;;;;;;34.84;31.12;98891.16;5031055;28;19920;-91
2022/06/21 12:23:49;;;;;;;;;;;;;;;34.81;30.23;98891.56;5013151;28;19986;-90
2022/06/21 12:26:16;;;;;;;;;;;;;;;35.13;28.45;98889.25;5031189;28;19983;-89
2022/06/21 12:28:42;;;;;;;;;;;;;;;34.82;30.67;98895.13;5030934;28;19952;-90
2022/06/21 12:31:26;;;;;;;;;;;;;;;34.85;31.44;98886.50;5012128;28;19951;-91
2022/06/21 12:33:55;;;;;;;;;;;;;;;35.02;32.15;98876.94;5031530;28;19920;-91
2022/06/21 12:36:30;;;;;;;;;;;;;;;35.09;29.10;98886.03;5031008;28;19909;-89
2022/06/21 12:39:01;;;;;;;;;;;;;;;34.89;29.06;98877.69;5031119;28;19917;-90
2022/06/21 12:41:32;;;;;;;;;;;;;;;34.95;30.60;98876.06;5031146;28;19928;-89
2022/06/21 12:44:09;;;;;;;;;;;;;;;35.18;29.66;98873.03;5030505;28;20008;-90
2022/06/21 12:47:01;;;;;;;;;;;;;;;34.96;30.68;98877.75;5029285;28;19917;-89
2022/06/21 12:49:29;;;;;;;;;;;;;;;35.25;29.73;98870.31;5028054;28;19966;-91
2022/06/21 12:52:07;;;;;;;;;;;;;;;35.09;29.03;98876.97;5031363;28;20303;-90
2022/06/21 12:54:59;;;;;;;;;;;;;;;34.85;29.29;98872.81;5034768;28;19959;-90
2022/06/21 12:57:25;;;;;;;;;;;;;;;35.04;29.71;98863.06;5017446;28;19917;-90
2022/06/21 13:00:01;;;;;;;;;;;;;;;35.12;31.04;98862.88;5034049;28;20368;-89
2022/06/21 13:02:45;;;;;;;;;;;;;;;35.08;31.70;98861.59;5034716;28;19913;-90
2022/06/21 13:05:19;;;;;;;;;;;;;;;35.28;31.48;98851.63;5034098;28;20279;-89
2022/06/21 13:08:03;;;;;;;;;;;;;;;35.40;32.01;98848.28;5034669;28;19913;-89
2022/06/21 13:10:29;;;;;;;;;;;;;;;35.13;29.99;98859.94;5033515;28;20413;-87
2022/06/21 13:12:57;;;;;;;;;;;;;;;34.99;30.23;98855.44;5034298;28;19921;-87
2022/06/21 13:15:22;;;;;;;;;;;;;;;35.12;31.95;98860.97;5034483;28;19913;-88
2022/06/21 13:17:53;;;;;;;;;;;;;;;35.28;34.81;98861.72;5034385;28;19936;-87
2022/06/21 13:20:36;;;;;;;;;;;;;;;35.19;30.10;98860.16;5034174;28;19920;-92
2022/06/21 13:23:07;;;;;;;;;;;;;;;35.01;31.49;98850.59;5034556;28;19913;-90